createdAt,value
2023-05-05T00:00:26.294Z,61.67
2023-05-05T00:02:52.982Z,61.15
2023-05-05T00:05:19.700Z,61.66
2023-05-05T00:07:46.217Z,61.70
2023-05-05T00:10:12.730Z,61.38
2023-05-05T00:12:39.544Z,62.02
2023-05-05T00:15:07.388Z,61.81
2023-05-05T00:17:34.028Z,61.77
2023-05-05T00:20:00.878Z,62.07
2023-05-05T00:22:27.372Z,62.16
2023-05-05T00:24:53.825Z,62.20
2023-05-05T00:27:20.305Z,62.39
2023-05-05T00:29:49.091Z,62.25
2023-05-05T00:32:15.573Z,62.47
2023-05-05T00:34:42.140Z,62.50
2023-05-05T00:37:08.897Z,62.73
2023-05-05T00:39:35.443Z,62.90
2023-05-05T00:42:01.954Z,62.67
2023-05-05T00:44:40.752Z,62.84
2023-05-05T00:47:12.503Z,63.14
2023-05-05T00:49:39.750Z,63.32
2023-05-05T00:52:07.462Z,63.70
2023-05-05T00:54:35.087Z,63.86
2023-05-05T00:57:04.808Z,64.37
2023-05-05T00:59:37.230Z,64.28
2023-05-05T01:02:03.872Z,64.10
2023-05-05T01:04:30.589Z,64.13
2023-05-05T01:07:17.475Z,64.32
2023-05-05T01:10:25.631Z,64.40
2023-05-05T01:13:23.046Z,64.70
2023-05-05T01:15:49.614Z,64.81
2023-05-05T01:18:35.097Z,64.59
2023-05-05T01:21:23.712Z,64.53
2023-05-05T01:23:56.295Z,64.98
2023-05-05T01:26:51.332Z,64.73
2023-05-05T01:30:10.335Z,64.46
2023-05-05T01:32:48.099Z,64.43
2023-05-05T01:35:32.911Z,64.57
2023-05-05T01:38:06.215Z,65.14
2023-05-05T01:40:38.273Z,65.06
2023-05-05T01:43:07.512Z,65.56
2023-05-05T01:45:38.009Z,65.48
2023-05-05T01:48:06.686Z,65.93
2023-05-05T01:50:34.584Z,66.44
2023-05-05T01:53:03.812Z,66.47
2023-05-05T01:55:32.408Z,66.21
2023-05-05T01:58:00.180Z,66.52
2023-05-05T02:00:49.785Z,66.62
2023-05-05T02:03:17.850Z,67.19
2023-05-05T02:05:45.350Z,67.15
2023-05-05T02:08:12.647Z,67.56
2023-05-05T02:10:43.643Z,67.41
2023-05-05T02:13:13.340Z,67.77
2023-05-05T02:15:40.864Z,67.74
2023-05-05T02:18:07.764Z,67.87
2023-05-05T02:20:37.355Z,68.32
2023-05-05T02:23:05.812Z,70.52
2023-05-05T02:25:53.216Z,70.85
2023-05-05T02:28:48.972Z,70.98
2023-05-05T02:31:17.855Z,70.64
2023-05-05T02:33:49.846Z,71.42
2023-05-05T02:36:22.717Z,71.69
2023-05-05T02:38:55.569Z,71.53
2023-05-05T02:41:23.348Z,71.83
2023-05-05T02:43:52.342Z,72.33
2023-05-05T02:46:19.511Z,72.44
2023-05-05T02:48:46.480Z,72.70
2023-05-05T02:51:13.010Z,72.69
2023-05-05T02:53:39.957Z,73.25
2023-05-05T02:56:29.592Z,74.24
2023-05-05T02:59:16.498Z,74.20
2023-05-05T03:02:17.419Z,74.52
2023-05-05T03:05:09.907Z,75.61
2023-05-05T03:07:48.045Z,76.88
2023-05-05T03:10:18.445Z,76.65
2023-05-05T03:13:07.583Z,77.04
2023-05-05T03:15:54.779Z,77.57
2023-05-05T03:18:23.216Z,77.78
2023-05-05T03:20:53.454Z,78.38
2023-05-05T03:23:21.061Z,78.49
2023-05-05T03:25:49.292Z,78.75
2023-05-05T03:28:16.820Z,78.86
2023-05-05T03:30:44.152Z,78.93
2023-05-05T03:33:11.918Z,78.51
2023-05-05T03:35:38.381Z,78.82
2023-05-05T03:38:04.840Z,78.56
2023-05-05T03:40:43.640Z,78.54
2023-05-05T03:43:11.537Z,78.82
2023-05-05T03:45:38.780Z,78.43
2023-05-05T03:48:06.182Z,78.73
2023-05-05T03:50:32.745Z,79.03
2023-05-05T03:52:59.566Z,79.16
2023-05-05T03:55:26.116Z,79.63
2023-05-05T03:57:52.573Z,79.40
2023-05-05T04:00:19.430Z,79.62
2023-05-05T04:02:46.047Z,79.83
2023-05-05T04:05:12.652Z,79.44
2023-05-05T04:07:39.623Z,79.82
2023-05-05T04:10:07.350Z,79.95
2023-05-05T04:12:34.049Z,79.83
2023-05-05T04:15:00.596Z,79.90
2023-05-05T04:17:27.102Z,79.71
2023-05-05T04:19:54.688Z,80.08
2023-05-05T04:22:21.268Z,79.85
2023-05-05T04:24:48.099Z,79.86
2023-05-05T04:27:14.556Z,80.86
2023-05-05T04:29:41.407Z,80.13
2023-05-05T04:32:09.225Z,80.41
2023-05-05T04:34:35.836Z,80.79
2023-05-05T04:37:02.326Z,80.58
2023-05-05T04:39:30.239Z,80.94
2023-05-05T04:41:56.680Z,80.10
2023-05-05T04:44:23.353Z,80.03
2023-05-05T04:46:49.818Z,80.38
2023-05-05T04:49:16.354Z,80.12
2023-05-05T04:51:42.864Z,80.23
2023-05-05T04:54:09.348Z,79.83
2023-05-05T04:56:35.943Z,79.14
2023-05-05T04:59:02.475Z,79.25
2023-05-05T05:01:29.013Z,79.63
2023-05-05T05:03:56.901Z,79.43
2023-05-05T05:06:23.495Z,79.23
2023-05-05T05:08:50.119Z,78.88
2023-05-05T05:11:16.601Z,78.75
2023-05-05T05:13:43.362Z,78.59
2023-05-05T05:16:10.059Z,78.29
2023-05-05T05:18:36.595Z,78.31
2023-05-05T05:21:03.545Z,77.83
2023-05-05T05:23:30.075Z,77.88
2023-05-05T05:25:57.144Z,77.53
2023-05-05T05:28:24.008Z,76.27
2023-05-05T05:30:50.676Z,71.70
2023-05-05T05:33:17.099Z,68.29
2023-05-05T05:35:43.596Z,66.13
2023-05-05T05:38:09.967Z,64.27
2023-05-05T05:40:38.035Z,63.33
2023-05-05T05:43:04.513Z,65.10
2023-05-05T05:45:31.055Z,66.42
2023-05-05T05:47:57.820Z,67.05
2023-05-05T05:50:27.127Z,67.27
2023-05-05T05:52:53.671Z,67.59
2023-05-05T05:55:20.128Z,67.63
2023-05-05T05:57:46.628Z,67.17
2023-05-05T06:00:13.926Z,64.45
2023-05-05T06:02:40.725Z,60.79
2023-05-05T06:05:07.545Z,56.96
2023-05-05T06:07:34.020Z,53.14
2023-05-05T06:10:10.910Z,49.73
2023-05-05T06:12:45.481Z,48.48
2023-05-05T06:15:11.995Z,49.66
2023-05-05T06:17:38.533Z,50.09
2023-05-05T06:20:06.049Z,51.34
2023-05-05T06:22:32.837Z,52.97
2023-05-05T06:24:59.515Z,53.31
2023-05-05T06:27:26.063Z,54.50
2023-05-05T06:29:52.641Z,54.91
2023-05-05T06:32:20.404Z,56.43
2023-05-05T06:34:48.301Z,57.58
2023-05-05T06:37:15.452Z,57.85
2023-05-05T06:39:42.003Z,58.74
2023-05-05T06:42:08.585Z,58.34
2023-05-05T06:44:36.516Z,58.34
2023-05-05T06:47:04.054Z,58.45
2023-05-05T06:49:32.852Z,58.12
2023-05-05T06:51:59.579Z,58.76
2023-05-05T06:54:26.377Z,58.63
2023-05-05T06:56:52.985Z,58.38
2023-05-05T06:59:21.239Z,58.05
2023-05-05T07:01:48.245Z,58.27
2023-05-05T07:04:14.926Z,58.62
2023-05-05T07:06:44.034Z,58.01
2023-05-05T07:09:10.794Z,58.16
2023-05-05T07:11:37.989Z,57.59
2023-05-05T07:14:04.716Z,57.12
2023-05-05T07:16:31.308Z,56.38
2023-05-05T07:18:58.212Z,56.99
2023-05-05T07:21:24.840Z,56.58
2023-05-05T07:23:51.630Z,56.33
2023-05-05T07:26:18.273Z,56.61
2023-05-05T07:28:44.989Z,56.82
2023-05-05T07:31:11.826Z,56.82
2023-05-05T07:33:38.655Z,56.92
2023-05-05T07:36:06.261Z,56.00
2023-05-05T07:38:42.261Z,55.70
2023-05-05T07:41:12.299Z,54.63
2023-05-05T07:43:42.818Z,54.17
2023-05-05T07:46:11.064Z,53.99
2023-05-05T07:48:42.685Z,52.52
2023-05-05T07:51:09.989Z,52.92
2023-05-05T07:53:37.170Z,52.07
2023-05-05T07:56:04.181Z,52.73
2023-05-05T07:58:30.957Z,52.41
2023-05-05T08:00:57.753Z,52.04
2023-05-05T08:03:24.994Z,51.51
2023-05-05T08:05:55.962Z,51.44
2023-05-05T08:08:27.007Z,51.10
2023-05-05T08:10:53.586Z,50.83
2023-05-05T08:13:35.710Z,50.76
2023-05-05T08:16:02.730Z,50.99
2023-05-05T08:18:29.741Z,50.59
2023-05-05T08:20:56.740Z,50.03
2023-05-05T08:23:23.370Z,49.47
2023-05-05T08:25:49.977Z,49.74
2023-05-05T08:28:16.581Z,48.53
2023-05-05T08:30:45.783Z,47.21
2023-05-05T08:33:12.488Z,46.27
2023-05-05T08:35:39.184Z,45.41
2023-05-05T08:38:08.670Z,45.03
2023-05-05T08:40:37.925Z,45.80
2023-05-05T08:43:05.048Z,46.26
2023-05-05T08:45:32.203Z,46.62
2023-05-05T08:48:02.656Z,46.21
2023-05-05T08:50:29.935Z,46.82
2023-05-05T08:53:11.715Z,46.68
2023-05-05T08:55:48.130Z,46.53
2023-05-05T08:58:27.028Z,46.71
2023-05-05T09:00:56.467Z,46.07
2023-05-05T09:03:23.628Z,46.67
2023-05-05T09:05:51.093Z,47.19
2023-05-05T09:08:18.089Z,47.76
2023-05-05T09:10:44.904Z,48.44
2023-05-05T09:13:11.598Z,49.79
2023-05-05T09:15:42.215Z,49.53
2023-05-05T09:18:09.689Z,50.10
2023-05-05T09:20:38.394Z,50.77
2023-05-05T09:23:16.584Z,50.66
2023-05-05T09:25:47.063Z,50.48
2023-05-05T09:28:16.509Z,50.27
2023-05-05T09:30:45.004Z,49.86
2023-05-05T09:33:12.173Z,49.72
2023-05-05T09:35:55.784Z,49.97
2023-05-05T09:38:24.632Z,51.57
2023-05-05T09:40:53.953Z,51.77
2023-05-05T09:43:22.286Z,52.95
2023-05-05T09:45:49.583Z,53.32
2023-05-05T09:48:30.641Z,53.23
2023-05-05T09:50:58.610Z,53.61
2023-05-05T09:53:26.560Z,54.08
2023-05-05T09:55:57.611Z,53.86
2023-05-05T09:58:35.317Z,53.81
2023-05-05T10:01:01.897Z,53.88
2023-05-05T10:03:28.405Z,53.29
2023-05-05T10:05:57.372Z,52.69
2023-05-05T10:08:30.479Z,52.97
2023-05-05T10:11:06.462Z,53.00
2023-05-05T10:13:39.980Z,53.33
2023-05-05T10:16:09.183Z,55.77
2023-05-05T10:18:39.669Z,61.95
2023-05-05T10:21:07.327Z,70.08
2023-05-05T10:23:51.256Z,81.89
2023-05-05T10:26:21.105Z,86.54
2023-05-05T10:28:55.162Z,88.98
2023-05-05T10:31:48.034Z,89.40
2023-05-05T10:34:45.244Z,89.45
2023-05-05T10:37:12.070Z,90.25
2023-05-05T10:39:38.748Z,90.59
2023-05-05T10:42:05.410Z,90.61
2023-05-05T10:44:33.252Z,90.75
2023-05-05T10:47:01.590Z,91.31
2023-05-05T10:49:28.204Z,91.27
2023-05-05T10:52:16.881Z,91.52
2023-05-05T10:54:50.824Z,91.55
2023-05-05T10:57:21.748Z,91.76
2023-05-05T10:59:48.415Z,91.59
2023-05-05T11:02:34.344Z,92.16
2023-05-05T11:05:17.854Z,92.18
2023-05-05T11:07:46.472Z,92.19
2023-05-05T11:10:17.787Z,92.50
2023-05-05T11:13:00.446Z,92.39
2023-05-05T11:15:37.373Z,92.33
2023-05-05T11:18:07.512Z,92.31
2023-05-05T11:20:40.664Z,92.60
2023-05-05T11:23:07.446Z,92.65
2023-05-05T11:25:37.503Z,92.53
2023-05-05T11:28:12.362Z,92.54
2023-05-05T11:31:03.108Z,92.70
2023-05-05T11:33:37.898Z,92.84
2023-05-05T11:36:12.490Z,92.77
2023-05-05T11:38:39.845Z,92.83
2023-05-05T11:41:09.679Z,92.83
2023-05-05T11:43:36.936Z,92.97
2023-05-05T11:46:14.604Z,93.08
2023-05-05T11:48:47.886Z,92.92
2023-05-05T11:51:19.065Z,93.04
2023-05-05T11:53:47.462Z,93.06
2023-05-05T11:56:22.353Z,93.06
2023-05-05T11:58:49.432Z,92.95
2023-05-05T12:01:16.170Z,93.19
2023-05-05T12:03:45.247Z,93.18
2023-05-05T12:06:13.208Z,93.26
2023-05-05T12:08:41.200Z,93.39
2023-05-05T12:11:11.976Z,93.30
2023-05-05T12:13:38.937Z,93.09
2023-05-05T12:16:16.081Z,93.30
2023-05-05T12:18:43.636Z,93.15
2023-05-05T12:21:20.866Z,93.20
2023-05-05T12:23:49.940Z,93.31
2023-05-05T12:26:43.509Z,93.35
2023-05-05T12:29:11.246Z,93.48
2023-05-05T12:31:42.097Z,93.27
2023-05-05T12:34:10.513Z,93.27
2023-05-05T12:36:38.514Z,93.30
2023-05-05T12:39:05.868Z,93.50
2023-05-05T12:41:35.914Z,93.53
2023-05-05T12:44:04.729Z,93.45
2023-05-05T12:46:48.037Z,93.52
2023-05-05T12:49:15.791Z,93.38
2023-05-05T12:51:58.653Z,93.50
2023-05-05T12:54:32.587Z,93.68
2023-05-05T12:57:11.568Z,93.57
2023-05-05T12:59:39.490Z,93.45
2023-05-05T13:02:09.800Z,93.31
2023-05-05T13:04:49.455Z,93.48
2023-05-05T13:07:17.929Z,93.47
2023-05-05T13:09:47.200Z,93.56
2023-05-05T13:12:15.200Z,93.11
2023-05-05T13:14:42.626Z,93.27
2023-05-05T13:17:13.482Z,93.37
2023-05-05T13:19:46.909Z,93.35
2023-05-05T13:22:18.648Z,93.30
2023-05-05T13:24:51.453Z,93.20
2023-05-05T13:27:20.173Z,93.26
2023-05-05T13:29:49.227Z,93.44
2023-05-05T13:32:16.315Z,93.53
2023-05-05T13:34:46.760Z,93.26
2023-05-05T13:37:14.144Z,93.55
2023-05-05T13:39:40.902Z,93.38
2023-05-05T13:42:08.058Z,93.20
2023-05-05T13:44:35.784Z,93.35
2023-05-05T13:47:03.305Z,93.23
2023-05-05T13:49:30.431Z,93.54
2023-05-05T13:51:58.576Z,93.35
2023-05-05T13:54:25.757Z,93.33
2023-05-05T13:56:53.817Z,93.11
2023-05-05T13:59:20.889Z,93.47
2023-05-05T14:01:49.279Z,93.54
2023-05-05T14:04:17.924Z,93.58
2023-05-05T14:06:46.443Z,93.78
2023-05-05T14:09:13.214Z,93.59
2023-05-05T14:11:40.166Z,93.46
2023-05-05T14:14:07.284Z,93.51
2023-05-05T14:16:34.106Z,93.53
2023-05-05T14:19:01.529Z,93.17
2023-05-05T14:21:28.789Z,92.96
2023-05-05T14:23:55.811Z,93.05
2023-05-05T14:26:23.383Z,92.92
2023-05-05T14:28:50.264Z,93.19
2023-05-05T14:31:17.754Z,92.40
2023-05-05T14:33:44.562Z,91.73
2023-05-05T14:36:11.196Z,92.40
2023-05-05T14:38:38.063Z,92.49
2023-05-05T14:41:05.290Z,91.62
2023-05-05T14:43:41.588Z,91.43
2023-05-05T14:46:08.407Z,91.95
2023-05-05T14:48:35.291Z,92.20
2023-05-05T14:51:01.953Z,92.28
2023-05-05T14:53:28.646Z,89.77
2023-05-05T14:55:56.108Z,86.60
2023-05-05T14:58:24.589Z,86.48
2023-05-05T15:00:52.919Z,86.60
2023-05-05T15:03:19.734Z,84.34
2023-05-05T15:05:47.070Z,84.37
2023-05-05T15:08:19.871Z,83.86
2023-05-05T15:10:47.014Z,83.46
2023-05-05T15:13:14.217Z,84.08
2023-05-05T15:15:41.409Z,86.54
2023-05-05T15:18:08.466Z,85.98
2023-05-05T15:20:35.729Z,83.89
2023-05-05T15:23:02.844Z,86.66
2023-05-05T15:25:30.062Z,86.83
2023-05-05T15:27:58.023Z,85.86
2023-05-05T15:30:25.113Z,85.63
2023-05-05T15:32:51.982Z,85.14
2023-05-05T15:35:19.219Z,83.16
2023-05-05T15:37:48.192Z,83.06
2023-05-05T15:40:15.086Z,83.96
2023-05-05T15:42:41.858Z,83.48
2023-05-05T15:45:12.497Z,82.71
2023-05-05T15:47:39.343Z,82.94
2023-05-05T15:50:09.055Z,83.08
2023-05-05T15:52:38.277Z,81.97
2023-05-05T15:55:09.006Z,84.41
2023-05-05T15:57:36.143Z,84.67
2023-05-05T16:00:03.030Z,83.51
2023-05-05T16:02:29.862Z,83.94
2023-05-05T16:05:00.099Z,85.75
2023-05-05T16:07:26.942Z,85.02
2023-05-05T16:09:53.738Z,83.67
2023-05-05T16:12:23.319Z,85.16
2023-05-05T16:14:50.334Z,84.03
2023-05-05T16:17:16.910Z,82.73
2023-05-05T16:19:43.759Z,82.80
2023-05-05T16:22:10.629Z,81.13
2023-05-05T16:24:37.554Z,84.78
2023-05-05T16:27:04.603Z,83.44
2023-05-05T16:29:31.360Z,83.26
2023-05-05T16:32:00.613Z,84.87
2023-05-05T16:34:27.400Z,84.95
2023-05-05T16:36:54.064Z,84.84
2023-05-05T16:39:23.534Z,84.24
2023-05-05T16:41:53.147Z,84.97
2023-05-05T16:44:19.826Z,85.79
2023-05-05T16:46:47.800Z,83.63
2023-05-05T16:49:14.467Z,82.25
2023-05-05T16:51:41.336Z,82.60
2023-05-05T16:54:08.056Z,83.78
2023-05-05T16:56:34.681Z,83.79
2023-05-05T16:59:01.480Z,83.30
2023-05-05T17:01:28.166Z,83.33
2023-05-05T17:03:55.601Z,84.37
2023-05-05T17:06:22.409Z,85.61
2023-05-05T17:08:49.082Z,85.10
2023-05-05T17:11:15.574Z,84.31
2023-05-05T17:13:42.317Z,85.28
2023-05-05T17:16:08.947Z,88.10
2023-05-05T17:18:35.460Z,88.21
2023-05-05T17:21:05.413Z,90.52
2023-05-05T17:23:32.265Z,91.51
2023-05-05T17:25:59.404Z,90.48
2023-05-05T17:28:31.975Z,88.27
2023-05-05T17:31:00.006Z,88.91
2023-05-05T17:33:26.744Z,88.86
2023-05-05T17:35:54.566Z,90.10
2023-05-05T17:38:21.435Z,89.61
2023-05-05T17:40:50.296Z,90.36
2023-05-05T17:43:16.809Z,89.42
2023-05-05T17:45:43.475Z,89.57
2023-05-05T17:48:11.270Z,91.66
2023-05-05T17:50:37.749Z,92.48
2023-05-05T17:53:04.841Z,92.21
2023-05-05T17:55:31.389Z,89.35
2023-05-05T17:57:59.030Z,90.17
2023-05-05T18:00:29.301Z,87.89
2023-05-05T18:02:56.131Z,88.77
2023-05-05T18:05:22.886Z,90.99
2023-05-05T18:07:51.623Z,91.73
2023-05-05T18:10:19.245Z,91.97
2023-05-05T18:12:45.851Z,92.60
2023-05-05T18:15:12.433Z,92.46
2023-05-05T18:17:41.895Z,93.11
2023-05-05T18:20:09.107Z,93.18
2023-05-05T18:22:35.954Z,93.04
2023-05-05T18:25:02.528Z,93.46
2023-05-05T18:27:29.271Z,93.41
2023-05-05T18:29:58.624Z,93.58
2023-05-05T18:32:25.271Z,93.46
2023-05-05T18:34:51.841Z,93.55
2023-05-05T18:37:18.362Z,93.74
2023-05-05T18:39:45.244Z,93.94
2023-05-05T18:42:13.125Z,94.25
2023-05-05T18:44:41.525Z,94.30
2023-05-05T18:47:08.260Z,94.16
2023-05-05T18:49:35.032Z,94.28
2023-05-05T18:52:01.512Z,94.37
2023-05-05T18:54:30.449Z,94.29
2023-05-05T18:56:57.348Z,94.44
2023-05-05T18:59:23.834Z,94.18
2023-05-05T19:01:50.326Z,94.57
2023-05-05T19:04:30.061Z,94.75
2023-05-05T19:06:59.914Z,94.60
2023-05-05T19:09:26.792Z,94.70
2023-05-05T19:11:55.821Z,94.49
2023-05-05T19:14:22.880Z,94.76
2023-05-05T19:16:49.559Z,94.83
2023-05-05T19:19:22.303Z,94.77
2023-05-05T19:21:48.826Z,94.67
2023-05-05T19:24:17.040Z,94.63
2023-05-05T19:26:47.588Z,94.93
2023-05-05T19:29:14.184Z,95.23
2023-05-05T19:31:40.859Z,94.80
2023-05-05T19:34:10.167Z,95.36
2023-05-05T19:36:36.727Z,95.21
2023-05-05T19:39:04.772Z,95.16
2023-05-05T19:41:31.448Z,95.39
2023-05-05T19:43:58.127Z,95.27
2023-05-05T19:46:27.180Z,95.29
2023-05-05T19:48:53.668Z,94.94
2023-05-05T19:51:21.365Z,95.60
2023-05-05T19:53:47.904Z,94.96
2023-05-05T19:56:14.429Z,94.86
2023-05-05T19:58:57.619Z,95.66
2023-05-05T20:01:24.473Z,95.20
2023-05-05T20:03:54.268Z,94.98
2023-05-05T20:06:21.217Z,95.66
2023-05-05T20:08:47.758Z,95.63
2023-05-05T20:11:15.822Z,95.06
2023-05-05T20:13:43.075Z,95.37
2023-05-05T20:16:10.099Z,95.79
2023-05-05T20:18:36.572Z,95.30
2023-05-05T20:21:03.262Z,95.17
2023-05-05T20:23:29.953Z,95.42
2023-05-05T20:25:56.768Z,95.84
2023-05-05T20:28:23.659Z,95.74
2023-05-05T20:30:50.183Z,95.50
2023-05-05T20:33:16.684Z,95.55
2023-05-05T20:35:43.098Z,94.92
2023-05-05T20:38:09.860Z,95.07
2023-05-05T20:40:38.651Z,95.71
2023-05-05T20:43:05.168Z,95.54
2023-05-05T20:45:34.200Z,95.65
2023-05-05T20:48:01.697Z,95.21
2023-05-05T20:50:28.267Z,95.05
2023-05-05T20:52:55.004Z,95.63
2023-05-05T20:55:24.079Z,95.69
2023-05-05T20:57:50.603Z,95.26
2023-05-05T21:00:17.179Z,95.83
2023-05-05T21:02:43.782Z,95.37
2023-05-05T21:05:10.530Z,95.91
2023-05-05T21:07:37.358Z,95.39
2023-05-05T21:10:04.916Z,95.66
2023-05-05T21:12:33.814Z,95.76
2023-05-05T21:15:00.731Z,95.30
2023-05-05T21:17:27.840Z,95.13
2023-05-05T21:19:55.527Z,95.68
2023-05-05T21:22:22.397Z,95.19
2023-05-05T21:24:49.188Z,95.58
2023-05-05T21:27:16.081Z,96.17
2023-05-05T21:29:42.566Z,95.59
2023-05-05T21:32:10.806Z,95.94
2023-05-05T21:34:38.334Z,96.04
2023-05-05T21:37:42.925Z,94.76
2023-05-05T21:40:14.029Z,94.56
2023-05-05T21:42:51.862Z,94.56
2023-05-05T21:45:34.579Z,94.56
2023-05-05T21:48:01.609Z,95.44
2023-05-05T21:50:29.910Z,95.22
2023-05-05T21:52:56.538Z,95.71
2023-05-05T21:55:23.079Z,95.28
2023-05-05T21:57:49.492Z,95.22
2023-05-05T22:00:16.780Z,95.57
2023-05-05T22:02:45.297Z,95.77
2023-05-05T22:05:13.644Z,95.82
2023-05-05T22:07:40.705Z,95.85
2023-05-05T22:10:08.074Z,95.46
2023-05-05T22:12:34.852Z,95.84
2023-05-05T22:15:01.417Z,95.91
2023-05-05T22:17:27.958Z,95.78
2023-05-05T22:19:58.195Z,95.34
2023-05-05T22:22:24.661Z,96.22
2023-05-05T22:24:51.461Z,95.71
2023-05-05T22:27:17.912Z,95.48
2023-05-05T22:29:44.474Z,95.61
2023-05-05T22:32:12.315Z,95.27
2023-05-05T22:34:40.313Z,95.84
2023-05-05T22:37:06.777Z,95.65
2023-05-05T22:39:33.352Z,95.81
2023-05-05T22:41:59.902Z,96.22
2023-05-05T22:44:26.439Z,95.65
2023-05-05T22:46:52.995Z,96.13
2023-05-05T22:49:19.668Z,95.74
2023-05-05T22:51:47.009Z,96.01
2023-05-05T22:54:13.476Z,95.39
2023-05-05T22:56:40.377Z,96.25
2023-05-05T22:59:06.898Z,96.18
2023-05-05T23:01:34.002Z,96.25
2023-05-05T23:04:00.709Z,95.79
2023-05-05T23:06:28.000Z,95.57
2023-05-05T23:08:54.570Z,95.85
2023-05-05T23:11:21.188Z,95.97
2023-05-05T23:13:50.523Z,96.07
2023-05-05T23:16:18.516Z,96.00
2023-05-05T23:18:45.186Z,96.27
2023-05-05T23:21:11.698Z,96.51
2023-05-05T23:23:38.475Z,96.18
2023-05-05T23:26:05.125Z,95.59
2023-05-05T23:28:31.651Z,96.57
2023-05-05T23:30:58.342Z,96.38
2023-05-05T23:33:27.812Z,95.67
2023-05-05T23:35:54.355Z,95.83
2023-05-05T23:38:22.707Z,95.91
2023-05-05T23:40:49.232Z,96.21
2023-05-05T23:43:15.912Z,95.87
2023-05-05T23:45:42.386Z,96.38
2023-05-05T23:48:08.961Z,96.32
2023-05-05T23:50:35.587Z,95.65
2023-05-05T23:53:02.075Z,96.04
2023-05-05T23:55:28.644Z,95.90
2023-05-05T23:57:55.658Z,96.32
